Pagrindinis puslapis
METAR-TAF:

METAR-TAF

Oro uostai :

Rojetas, Tailandas

platuma: 16-07-00N, ilguma: 103-46-26E, Aukštis: 138 m

Dabartinis oras

Ataskaita buvo paskelbta 16 minutes, ne 12:00 UTC
Vėjas 4 kt iš Rytų
Temperatūra 25°C
Drėgmė 74%
Slėgis 1012 hPa
Matomumas: 9000 m

METAR: VTUV 151200Z 08004KT 9000 NSC 25/20 Q1012 NOSIG

Laikas: 19:16 (12:16 UTC)

Prognozė

Ataskaita buvo paskelbta 1 valandą ir 16 minutes, ne 11:00 UTC
Prognozė galioja nuo 15 metu 12 UTC su 16 metu 12 UTC
Vėjas 5 kt iš Rytų
Matomumas: 9000 m
Mažai debesys ne aukštis 3000 ft

TAF: VTUV 151100Z 1512/1612 08005KT 9000 FEW030

Orai ataskaitas ir orų prognozės (METAR, TAF).

turimą stotys yra geltonos ir raudonos taškus žemėlapyje.

Perkelti pele per norėdami pamatyti stoties vardą.

Tada spustelėkite, norėdami matyti oro stebėjimo ir prognozės.

Norėdami pakeisti žemėlapį: spustelėkite ant žalios mygtukų su juodo kryžiaus žemyn,; žalią mygtuką su brūkšneliu, jei norite nutolinti; arba žalių rodyklių gretimoms žemėlapius.


METAR-TAF: